sensor_id;sensor_type;location;lat;lon;timestamp;pressure;altitude;pressure_sealevel;temperature;humidity
58757;BME280;44527;47.460;19.016;2024-02-16T00:00:23;101056.34;;;8.77;86.97
58757;BME280;44527;47.460;19.016;2024-02-16T00:03:27;101058.91;;;8.60;87.92
58757;BME280;44527;47.460;19.016;2024-02-16T00:06:29;101058.84;;;8.61;88.83
58757;BME280;44527;47.460;19.016;2024-02-16T00:09:32;101052.97;;;8.56;89.53
58757;BME280;44527;47.460;19.016;2024-02-16T00:12:36;101061.25;;;8.66;89.51
58757;BME280;44527;47.460;19.016;2024-02-16T00:15:38;101047.69;;;8.58;88.30
58757;BME280;44527;47.460;19.016;2024-02-16T00:18:41;101046.19;;;8.52;88.92
58757;BME280;44527;47.460;19.016;2024-02-16T00:21:44;101047.56;;;8.78;87.50
58757;BME280;44527;47.460;19.016;2024-02-16T00:24:46;101047.81;;;8.73;87.27
58757;BME280;44527;47.460;19.016;2024-02-16T00:27:49;101047.44;;;8.81;86.93
58757;BME280;44527;47.460;19.016;2024-02-16T00:30:55;101038.56;;;8.66;87.37
58757;BME280;44527;47.460;19.016;2024-02-16T00:33:57;101042.78;;;8.69;87.67
58757;BME280;44527;47.460;19.016;2024-02-16T00:37:01;101043.00;;;8.64;87.17
58757;BME280;44527;47.460;19.016;2024-02-16T00:40:04;101046.97;;;8.73;85.85
58757;BME280;44527;47.460;19.016;2024-02-16T00:43:08;101045.47;;;8.67;86.81
58757;BME280;44527;47.460;19.016;2024-02-16T00:46:11;101041.66;;;8.56;88.90
58757;BME280;44527;47.460;19.016;2024-02-16T00:49:13;101038.25;;;8.54;88.27
58757;BME280;44527;47.460;19.016;2024-02-16T00:52:16;101037.22;;;8.58;87.11
58757;BME280;44527;47.460;19.016;2024-02-16T00:55:19;101041.59;;;8.57;87.08
58757;BME280;44527;47.460;19.016;2024-02-16T00:58:22;101048.81;;;8.52;87.39
58757;BME280;44527;47.460;19.016;2024-02-16T01:01:24;101036.66;;;8.51;85.39
58757;BME280;44527;47.460;19.016;2024-02-16T01:04:28;101039.47;;;8.65;85.83
58757;BME280;44527;47.460;19.016;2024-02-16T01:07:32;101043.41;;;8.74;84.63
58757;BME280;44527;47.460;19.016;2024-02-16T01:10:35;101041.50;;;8.78;85.08
58757;BME280;44527;47.460;19.016;2024-02-16T01:13:39;101035.16;;;8.64;85.82
58757;BME280;44527;47.460;19.016;2024-02-16T01:16:42;101041.22;;;8.65;86.14
58757;BME280;44527;47.460;19.016;2024-02-16T01:19:45;101033.87;;;8.73;84.82
58757;BME280;44527;47.460;19.016;2024-02-16T01:22:49;101023.75;;;8.65;85.37
58757;BME280;44527;47.460;19.016;2024-02-16T01:25:51;101027.50;;;8.60;85.86
58757;BME280;44527;47.460;19.016;2024-02-16T01:28:54;101029.97;;;8.63;84.47
58757;BME280;44527;47.460;19.016;2024-02-16T01:31:57;101037.34;;;8.55;84.39
58757;BME280;44527;47.460;19.016;2024-02-16T01:35:00;101037.09;;;8.42;83.95
58757;BME280;44527;47.460;19.016;2024-02-16T01:38:02;101035.62;;;8.35;84.28
58757;BME280;44527;47.460;19.016;2024-02-16T01:41:05;101038.72;;;8.24;86.83
58757;BME280;44527;47.460;19.016;2024-02-16T01:44:09;101032.06;;;8.17;87.30
58757;BME280;44527;47.460;19.016;2024-02-16T01:47:12;101034.47;;;8.02;85.49
58757;BME280;44527;47.460;19.016;2024-02-16T01:50:16;101032.81;;;8.00;86.34
58757;BME280;44527;47.460;19.016;2024-02-16T01:53:20;101028.06;;;7.89;86.55
58757;BME280;44527;47.460;19.016;2024-02-16T01:56:22;101042.72;;;7.73;88.04
58757;BME280;44527;47.460;19.016;2024-02-16T01:59:25;101038.72;;;7.64;89.28
58757;BME280;44527;47.460;19.016;2024-02-16T02:02:28;101035.78;;;7.51;90.22
58757;BME280;44527;47.460;19.016;2024-02-16T02:05:31;101032.12;;;7.35;90.04
58757;BME280;44527;47.460;19.016;2024-02-16T02:08:35;101025.69;;;7.22;91.05
58757;BME280;44527;47.460;19.016;2024-02-16T02:11:37;101026.06;;;7.12;91.24
58757;BME280;44527;47.460;19.016;2024-02-16T02:14:40;101026.56;;;7.00;91.76
58757;BME280;44527;47.460;19.016;2024-02-16T02:17:45;101024.22;;;6.94;92.63
58757;BME280;44527;47.460;19.016;2024-02-16T02:20:49;101020.41;;;6.81;93.53
58757;BME280;44527;47.460;19.016;2024-02-16T02:23:52;101020.16;;;6.87;95.09
58757;BME280;44527;47.460;19.016;2024-02-16T02:26:55;101020.44;;;6.79;95.54
58757;BME280;44527;47.460;19.016;2024-02-16T02:29:59;101014.38;;;6.79;94.64
58757;BME280;44527;47.460;19.016;2024-02-16T02:33:02;101011.25;;;6.71;95.02
58757;BME280;44527;47.460;19.016;2024-02-16T02:36:05;101011.50;;;6.64;95.79
58757;BME280;44527;47.460;19.016;2024-02-16T02:39:07;101012.63;;;6.57;94.94
58757;BME280;44527;47.460;19.016;2024-02-16T02:42:10;101017.09;;;6.54;96.07
58757;BME280;44527;47.460;19.016;2024-02-16T02:45:12;101017.94;;;6.54;96.24
58757;BME280;44527;47.460;19.016;2024-02-16T02:48:15;101017.19;;;6.52;96.56
58757;BME280;44527;47.460;19.016;2024-02-16T02:51:18;101013.69;;;6.52;96.83
58757;BME280;44527;47.460;19.016;2024-02-16T02:54:20;101018.03;;;6.53;95.22
58757;BME280;44527;47.460;19.016;2024-02-16T02:57:23;101011.62;;;6.38;97.84
58757;BME280;44527;47.460;19.016;2024-02-16T03:00:26;101015.44;;;6.29;97.48
58757;BME280;44527;47.460;19.016;2024-02-16T03:03:28;101019.97;;;6.24;98.54
58757;BME280;44527;47.460;19.016;2024-02-16T03:06:31;101016.50;;;6.24;99.95
58757;BME280;44527;47.460;19.016;2024-02-16T03:09:34;101021.78;;;6.22;100.00
58757;BME280;44527;47.460;19.016;2024-02-16T03:12:37;101021.22;;;6.14;100.00
58757;BME280;44527;47.460;19.016;2024-02-16T03:15:39;101023.13;;;6.09;99.48
58757;BME280;44527;47.460;19.016;2024-02-16T03:18:42;101020.59;;;6.07;100.00
58757;BME280;44527;47.460;19.016;2024-02-16T03:21:47;101027.59;;;6.05;100.00
58757;BME280;44527;47.460;19.016;2024-02-16T03:24:49;101022.69;;;5.97;100.00
58757;BME280;44527;47.460;19.016;2024-02-16T03:27:52;101020.94;;;5.98;100.00
58757;BME280;44527;47.460;19.016;2024-02-16T03:30:57;101020.75;;;6.03;100.00
58757;BME280;44527;47.460;19.016;2024-02-16T03:34:00;101022.47;;;6.04;100.00
58757;BME280;44527;47.460;19.016;2024-02-16T03:37:03;101014.44;;;5.85;100.00
58757;BME280;44527;47.460;19.016;2024-02-16T03:40:06;101022.56;;;5.75;100.00
58757;BME280;44527;47.460;19.016;2024-02-16T03:43:11;101024.59;;;5.67;100.00
58757;BME280;44527;47.460;19.016;2024-02-16T03:46:14;101023.87;;;5.62;100.00
58757;BME280;44527;47.460;19.016;2024-02-16T03:49:17;101018.00;;;5.57;100.00
58757;BME280;44527;47.460;19.016;2024-02-16T03:52:20;101019.81;;;5.55;100.00
58757;BME280;44527;47.460;19.016;2024-02-16T03:55:22;101018.12;;;5.54;100.00
58757;BME280;44527;47.460;19.016;2024-02-16T03:58:25;101014.09;;;5.44;100.00
58757;BME280;44527;47.460;19.016;2024-02-16T04:01:28;101023.03;;;5.37;100.00
58757;BME280;44527;47.460;19.016;2024-02-16T04:04:31;101025.75;;;5.34;100.00
58757;BME280;44527;47.460;19.016;2024-02-16T04:07:34;101030.00;;;5.36;100.00
58757;BME280;44527;47.460;19.016;2024-02-16T04:10:37;101032.72;;;5.33;100.00
58757;BME280;44527;47.460;19.016;2024-02-16T04:13:39;101037.09;;;5.31;100.00
58757;BME280;44527;47.460;19.016;2024-02-16T04:16:43;101033.00;;;5.24;100.00
58757;BME280;44527;47.460;19.016;2024-02-16T04:19:46;101033.00;;;5.24;100.00
58757;BME280;44527;47.460;19.016;2024-02-16T04:22:49;101030.44;;;5.22;100.00
58757;BME280;44527;47.460;19.016;2024-02-16T04:25:51;101030.50;;;5.21;100.00
58757;BME280;44527;47.460;19.016;2024-02-16T04:28:54;101041.16;;;5.13;100.00
58757;BME280;44527;47.460;19.016;2024-02-16T04:31:57;101042.25;;;5.06;100.00
58757;BME280;44527;47.460;19.016;2024-02-16T04:34:59;101044.97;;;5.03;100.00
58757;BME280;44527;47.460;19.016;2024-02-16T04:38:02;101040.53;;;5.05;100.00
58757;BME280;44527;47.460;19.016;2024-02-16T04:41:05;101037.09;;;5.04;100.00
58757;BME280;44527;47.460;19.016;2024-02-16T04:44:07;101044.09;;;5.02;100.00
58757;BME280;44527;47.460;19.016;2024-02-16T04:47:10;101044.97;;;5.03;100.00
58757;BME280;44527;47.460;19.016;2024-02-16T04:50:12;101052.66;;;5.06;100.00
58757;BME280;44527;47.460;19.016;2024-02-16T04:53:16;101056.34;;;4.99;100.00
58757;BME280;44527;47.460;19.016;2024-02-16T04:56:18;101051.03;;;5.02;100.00
58757;BME280;44527;47.460;19.016;2024-02-16T04:59:21;101048.72;;;4.93;100.00
58757;BME280;44527;47.460;19.016;2024-02-16T05:02:23;101053.34;;;4.84;100.00
58757;BME280;44527;47.460;19.016;2024-02-16T05:05:25;101044.63;;;4.86;100.00
58757;BME280;44527;47.460;19.016;2024-02-16T05:08:28;101049.78;;;4.87;100.00
58757;BME280;44527;47.460;19.016;2024-02-16T05:11:32;101048.31;;;4.78;100.00
58757;BME280;44527;47.460;19.016;2024-02-16T05:14:35;101045.00;;;4.73;100.00
58757;BME280;44527;47.460;19.016;2024-02-16T05:17:37;101049.28;;;4.74;100.00
58757;BME280;44527;47.460;19.016;2024-02-16T05:20:40;101051.16;;;4.71;100.00
58757;BME280;44527;47.460;19.016;2024-02-16T05:23:43;101050.28;;;4.72;100.00
58757;BME280;44527;47.460;19.016;2024-02-16T05:26:45;101052.06;;;4.70;100.00
58757;BME280;44527;47.460;19.016;2024-02-16T05:29:47;101052.09;;;4.68;100.00
58757;BME280;44527;47.460;19.016;2024-02-16T05:32:50;101048.13;;;4.56;100.00
58757;BME280;44527;47.460;19.016;2024-02-16T05:35:55;101050.81;;;4.53;100.00
58757;BME280;44527;47.460;19.016;2024-02-16T05:39:01;101051.75;;;4.51;100.00
58757;BME280;44527;47.460;19.016;2024-02-16T05:42:12;101058.81;;;4.47;100.00
58757;BME280;44527;47.460;19.016;2024-02-16T05:45:15;101059.50;;;4.52;100.00
58757;BME280;44527;47.460;19.016;2024-02-16T05:48:17;101062.00;;;4.55;100.00
58757;BME280;44527;47.460;19.016;2024-02-16T05:51:20;101063.94;;;4.49;100.00
58757;BME280;44527;47.460;19.016;2024-02-16T05:54:23;101066.53;;;4.49;100.00
58757;BME280;44527;47.460;19.016;2024-02-16T05:57:26;101068.16;;;4.53;100.00
58757;BME280;44527;47.460;19.016;2024-02-16T06:00:28;101060.22;;;4.57;100.00
58757;BME280;44527;47.460;19.016;2024-02-16T06:03:31;101064.31;;;4.66;100.00
58757;BME280;44527;47.460;19.016;2024-02-16T06:06:35;101069.44;;;4.68;100.00
58757;BME280;44527;47.460;19.016;2024-02-16T06:09:38;101071.91;;;4.72;100.00
58757;BME280;44527;47.460;19.016;2024-02-16T06:12:40;101074.25;;;4.81;100.00
58757;BME280;44527;47.460;19.016;2024-02-16T06:15:43;101080.28;;;4.82;100.00
58757;BME280;44527;47.460;19.016;2024-02-16T06:18:46;101085.06;;;4.96;100.00
58757;BME280;44527;47.460;19.016;2024-02-16T06:21:49;101092.47;;;5.08;100.00
58757;BME280;44527;47.460;19.016;2024-02-16T06:24:54;101087.28;;;5.08;100.00
58757;BME280;44527;47.460;19.016;2024-02-16T06:27:57;101090.16;;;5.27;100.00
58757;BME280;44527;47.460;19.016;2024-02-16T06:30:59;101089.38;;;5.51;100.00
58757;BME280;44527;47.460;19.016;2024-02-16T06:34:02;101093.66;;;5.79;100.00
58757;BME280;44527;47.460;19.016;2024-02-16T06:37:07;101097.13;;;6.05;100.00
58757;BME280;44527;47.460;19.016;2024-02-16T06:40:10;101101.31;;;6.34;100.00
58757;BME280;44527;47.460;19.016;2024-02-16T06:43:13;101104.47;;;6.65;100.00
58757;BME280;44527;47.460;19.016;2024-02-16T06:46:15;101105.06;;;6.96;100.00
58757;BME280;44527;47.460;19.016;2024-02-16T06:49:18;101109.22;;;7.01;100.00
58757;BME280;44527;47.460;19.016;2024-02-16T06:52:22;101113.16;;;7.11;99.20
58757;BME280;44527;47.460;19.016;2024-02-16T06:55:24;101129.00;;;7.29;97.17
58757;BME280;44527;47.460;19.016;2024-02-16T06:58:27;101122.72;;;7.55;95.60
58757;BME280;44527;47.460;19.016;2024-02-16T07:01:32;101127.63;;;7.83;93.84
58757;BME280;44527;47.460;19.016;2024-02-16T07:04:39;101122.38;;;8.05;91.65
58757;BME280;44527;47.460;19.016;2024-02-16T07:07:43;101141.09;;;8.35;87.86
58757;BME280;44527;47.460;19.016;2024-02-16T07:10:46;101133.75;;;8.64;84.04
58757;BME280;44527;47.460;19.016;2024-02-16T07:13:50;101137.50;;;8.77;81.43
58757;BME280;44527;47.460;19.016;2024-02-16T07:16:53;101150.06;;;8.69;80.29
58757;BME280;44527;47.460;19.016;2024-02-16T07:19:58;101144.69;;;8.53;78.49
58757;BME280;44527;47.460;19.016;2024-02-16T07:35:55;101147.84;;;8.20;77.63
58757;BME280;44527;47.460;19.016;2024-02-16T07:39:00;101148.63;;;8.22;78.06
58757;BME280;44527;47.460;19.016;2024-02-16T07:42:32;101152.56;;;8.33;77.61
58757;BME280;44527;47.460;19.016;2024-02-16T07:46:19;101147.72;;;8.44;76.09
58757;BME280;44527;47.460;19.016;2024-02-16T07:49:47;101149.06;;;8.32;75.51
58757;BME280;44527;47.460;19.016;2024-02-16T07:52:53;101152.22;;;8.40;76.24
58757;BME280;44527;47.460;19.016;2024-02-16T07:55:58;101151.25;;;8.43;75.11
58757;BME280;44527;47.460;19.016;2024-02-16T07:59:22;101142.94;;;8.33;74.58
58757;BME280;44527;47.460;19.016;2024-02-16T08:02:40;101138.09;;;8.44;75.27
58757;BME280;44527;47.460;19.016;2024-02-16T08:06:15;101134.94;;;8.57;75.04
58757;BME280;44527;47.460;19.016;2024-02-16T08:09:58;101147.25;;;8.73;75.59
58757;BME280;44527;47.460;19.016;2024-02-16T08:13:04;101142.69;;;8.79;74.27
58757;BME280;44527;47.460;19.016;2024-02-16T08:19:58;101137.00;;;8.69;73.04
58757;BME280;44527;47.460;19.016;2024-02-16T08:27:25;101141.66;;;8.81;73.24
58757;BME280;44527;47.460;19.016;2024-02-16T08:30:31;101145.06;;;8.83;71.75
58757;BME280;44527;47.460;19.016;2024-02-16T08:33:33;101144.31;;;9.00;70.98
58757;BME280;44527;47.460;19.016;2024-02-16T08:36:44;101136.72;;;8.94;70.27
58757;BME280;44527;47.460;19.016;2024-02-16T08:39:47;101135.13;;;9.09;69.85
58757;BME280;44527;47.460;19.016;2024-02-16T08:42:50;101134.41;;;9.24;68.01
58757;BME280;44527;47.460;19.016;2024-02-16T08:46:31;101151.31;;;9.36;67.56
58757;BME280;44527;47.460;19.016;2024-02-16T08:50:16;101146.47;;;9.28;65.95
58757;BME280;44527;47.460;19.016;2024-02-16T08:53:41;101154.72;;;9.38;65.84
58757;BME280;44527;47.460;19.016;2024-02-16T08:57:16;101149.44;;;9.57;64.54
58757;BME280;44527;47.460;19.016;2024-02-16T09:00:20;101151.75;;;9.63;63.16
58757;BME280;44527;47.460;19.016;2024-02-16T09:03:24;101152.75;;;9.60;64.09
58757;BME280;44527;47.460;19.016;2024-02-16T09:07:17;101144.72;;;9.63;62.90
58757;BME280;44527;47.460;19.016;2024-02-16T09:10:19;101149.75;;;9.68;63.03
58757;BME280;44527;47.460;19.016;2024-02-16T09:13:22;101143.28;;;9.75;62.60
58757;BME280;44527;47.460;19.016;2024-02-16T09:16:35;101151.06;;;9.94;60.80
58757;BME280;44527;47.460;19.016;2024-02-16T09:19:42;101153.84;;;10.08;58.87
58757;BME280;44527;47.460;19.016;2024-02-16T09:22:45;101150.84;;;9.99;59.84
58757;BME280;44527;47.460;19.016;2024-02-16T09:25:49;101152.78;;;9.95;59.21
58757;BME280;44527;47.460;19.016;2024-02-16T09:28:53;101151.22;;;9.91;59.72
58757;BME280;44527;47.460;19.016;2024-02-16T09:31:55;101158.31;;;10.06;60.56
58757;BME280;44527;47.460;19.016;2024-02-16T09:35:01;101155.69;;;10.24;59.75
58757;BME280;44527;47.460;19.016;2024-02-16T09:38:04;101160.56;;;10.31;59.46
58757;BME280;44527;47.460;19.016;2024-02-16T09:41:07;101157.53;;;10.39;60.18
58757;BME280;44527;47.460;19.016;2024-02-16T09:44:10;101160.38;;;10.52;59.03
58757;BME280;44527;47.460;19.016;2024-02-16T09:47:14;101167.66;;;10.47;60.37
58757;BME280;44527;47.460;19.016;2024-02-16T09:50:17;101167.56;;;10.48;59.48
58757;BME280;44527;47.460;19.016;2024-02-16T09:53:20;101166.22;;;10.57;59.08
58757;BME280;44527;47.460;19.016;2024-02-16T09:56:24;101160.03;;;10.58;59.50
58757;BME280;44527;47.460;19.016;2024-02-16T09:59:26;101171.12;;;10.80;57.87
58757;BME280;44527;47.460;19.016;2024-02-16T10:02:42;101152.97;;;10.92;57.91
58757;BME280;44527;47.460;19.016;2024-02-16T10:05:45;101158.91;;;10.95;57.41
58757;BME280;44527;47.460;19.016;2024-02-16T10:08:54;101151.63;;;11.00;56.02
58757;BME280;44527;47.460;19.016;2024-02-16T10:11:59;101153.66;;;10.95;54.84
58757;BME280;44527;47.460;19.016;2024-02-16T10:15:02;101158.22;;;10.92;56.61
58757;BME280;44527;47.460;19.016;2024-02-16T10:18:07;101155.87;;;11.03;55.14
58757;BME280;44527;47.460;19.016;2024-02-16T10:21:09;101154.94;;;11.04;56.33
58757;BME280;44527;47.460;19.016;2024-02-16T10:24:14;101153.56;;;11.28;55.84
58757;BME280;44527;47.460;19.016;2024-02-16T10:27:17;101149.41;;;11.40;55.35
58757;BME280;44527;47.460;19.016;2024-02-16T10:30:22;101147.84;;;11.68;55.77
58757;BME280;44527;47.460;19.016;2024-02-16T10:33:28;101144.28;;;11.53;54.38
58757;BME280;44527;47.460;19.016;2024-02-16T10:36:34;101140.94;;;11.35;55.43
58757;BME280;44527;47.460;19.016;2024-02-16T10:39:45;101130.94;;;11.42;55.35
58757;BME280;44527;47.460;19.016;2024-02-16T10:42:51;101133.47;;;11.43;54.90
58757;BME280;44527;47.460;19.016;2024-02-16T10:45:56;101131.19;;;11.37;56.47
58757;BME280;44527;47.460;19.016;2024-02-16T10:48:59;101124.31;;;11.35;56.37
58757;BME280;44527;47.460;19.016;2024-02-16T10:52:05;101120.75;;;11.52;57.39
58757;BME280;44527;47.460;19.016;2024-02-16T10:55:09;101121.66;;;11.50;55.69
58757;BME280;44527;47.460;19.016;2024-02-16T10:58:13;101110.03;;;11.55;56.88
58757;BME280;44527;47.460;19.016;2024-02-16T11:01:17;101109.75;;;11.59;56.45
58757;BME280;44527;47.460;19.016;2024-02-16T11:04:19;101112.94;;;11.50;58.78
58757;BME280;44527;47.460;19.016;2024-02-16T11:07:24;101104.63;;;11.58;56.44
58757;BME280;44527;47.460;19.016;2024-02-16T11:10:27;101094.84;;;11.60;57.63
58757;BME280;44527;47.460;19.016;2024-02-16T11:13:35;101096.25;;;11.65;58.67
58757;BME280;44527;47.460;19.016;2024-02-16T11:16:43;101094.03;;;11.73;57.48
58757;BME280;44527;47.460;19.016;2024-02-16T11:19:46;101086.03;;;11.61;57.09
58757;BME280;44527;47.460;19.016;2024-02-16T11:22:51;101083.47;;;11.59;58.03
58757;BME280;44527;47.460;19.016;2024-02-16T11:26:01;101076.34;;;11.61;57.25
58757;BME280;44527;47.460;19.016;2024-02-16T11:29:09;101077.78;;;11.67;58.24
58757;BME280;44527;47.460;19.016;2024-02-16T11:32:12;101078.50;;;11.85;59.36
58757;BME280;44527;47.460;19.016;2024-02-16T11:35:15;101075.88;;;11.85;56.10
58757;BME280;44527;47.460;19.016;2024-02-16T11:38:19;101069.06;;;11.81;57.63
58757;BME280;44527;47.460;19.016;2024-02-16T11:41:22;101078.56;;;11.83;57.52
58757;BME280;44527;47.460;19.016;2024-02-16T11:44:25;101064.63;;;11.97;61.30
58757;BME280;44527;47.460;19.016;2024-02-16T11:47:27;101062.44;;;11.89;58.09
58757;BME280;44527;47.460;19.016;2024-02-16T11:50:32;101059.44;;;11.95;57.82
58757;BME280;44527;47.460;19.016;2024-02-16T11:53:34;101055.00;;;11.82;56.93
58757;BME280;44527;47.460;19.016;2024-02-16T11:56:37;101057.28;;;11.88;58.64
58757;BME280;44527;47.460;19.016;2024-02-16T11:59:41;101043.28;;;12.02;57.71
58757;BME280;44527;47.460;19.016;2024-02-16T12:02:44;101044.59;;;12.09;56.24
58757;BME280;44527;47.460;19.016;2024-02-16T12:08:53;101034.53;;;12.01;58.58
58757;BME280;44527;47.460;19.016;2024-02-16T12:11:57;101033.53;;;12.04;56.88
58757;BME280;44527;47.460;19.016;2024-02-16T12:14:59;101033.03;;;12.11;56.67
58757;BME280;44527;47.460;19.016;2024-02-16T12:18:02;101033.59;;;12.16;57.63
58757;BME280;44527;47.460;19.016;2024-02-16T12:21:06;101032.75;;;12.16;56.79
58757;BME280;44527;47.460;19.016;2024-02-16T12:24:09;101027.41;;;12.03;56.95
58757;BME280;44527;47.460;19.016;2024-02-16T12:27:12;101020.06;;;12.08;57.03
58757;BME280;44527;47.460;19.016;2024-02-16T12:30:15;101023.34;;;12.26;58.23
58757;BME280;44527;47.460;19.016;2024-02-16T12:33:18;101026.81;;;12.27;57.52
58757;BME280;44527;47.460;19.016;2024-02-16T12:36:20;101022.59;;;12.38;56.19
58757;BME280;44527;47.460;19.016;2024-02-16T12:39:25;101025.72;;;12.31;57.36
58757;BME280;44527;47.460;19.016;2024-02-16T12:42:27;101013.66;;;12.27;57.42
58757;BME280;44527;47.460;19.016;2024-02-16T12:45:30;101013.66;;;12.41;59.32
58757;BME280;44527;47.460;19.016;2024-02-16T12:48:34;101006.34;;;12.32;58.37
58757;BME280;44527;47.460;19.016;2024-02-16T12:51:36;101003.13;;;12.41;56.74
58757;BME280;44527;47.460;19.016;2024-02-16T12:54:39;101003.97;;;12.41;58.62
58757;BME280;44527;47.460;19.016;2024-02-16T12:57:41;100998.50;;;12.45;57.79
58757;BME280;44527;47.460;19.016;2024-02-16T13:00:45;100997.28;;;12.50;56.49
58757;BME280;44527;47.460;19.016;2024-02-16T13:03:47;100994.38;;;12.40;58.48
58757;BME280;44527;47.460;19.016;2024-02-16T13:06:50;100986.69;;;12.37;56.96
58757;BME280;44527;47.460;19.016;2024-02-16T13:09:54;100986.56;;;12.39;58.10
58757;BME280;44527;47.460;19.016;2024-02-16T13:12:57;100988.34;;;12.53;56.77
58757;BME280;44527;47.460;19.016;2024-02-16T13:15:59;100986.63;;;12.52;57.25
58757;BME280;44527;47.460;19.016;2024-02-16T13:19:02;100973.31;;;12.40;56.48
58757;BME280;44527;47.460;19.016;2024-02-16T13:22:05;100978.03;;;12.35;58.02
58757;BME280;44527;47.460;19.016;2024-02-16T13:25:08;100972.19;;;12.45;58.45
58757;BME280;44527;47.460;19.016;2024-02-16T13:28:11;100972.75;;;12.50;57.43
58757;BME280;44527;47.460;19.016;2024-02-16T13:31:13;100972.53;;;12.53;56.81
58757;BME280;44527;47.460;19.016;2024-02-16T13:34:16;100975.84;;;12.42;58.37
58757;BME280;44527;47.460;19.016;2024-02-16T13:37:19;100971.03;;;12.49;57.99
58757;BME280;44527;47.460;19.016;2024-02-16T13:40:21;100966.13;;;12.57;57.60
58757;BME280;44527;47.460;19.016;2024-02-16T13:43:24;100974.12;;;12.55;57.07
58757;BME280;44527;47.460;19.016;2024-02-16T13:46:27;100966.91;;;12.45;58.38
58757;BME280;44527;47.460;19.016;2024-02-16T13:49:30;100965.16;;;12.58;57.46
58757;BME280;44527;47.460;19.016;2024-02-16T13:52:34;100964.53;;;12.54;57.80
58757;BME280;44527;47.460;19.016;2024-02-16T13:55:37;100969.16;;;12.51;58.95
58757;BME280;44527;47.460;19.016;2024-02-16T13:58:40;100960.97;;;12.55;57.17
58757;BME280;44527;47.460;19.016;2024-02-16T14:01:42;100965.47;;;12.53;56.88
58757;BME280;44527;47.460;19.016;2024-02-16T14:04:45;100965.13;;;12.45;57.59
58757;BME280;44527;47.460;19.016;2024-02-16T14:07:48;100963.72;;;12.39;57.57
58757;BME280;44527;47.460;19.016;2024-02-16T14:11:01;100965.31;;;12.42;58.32
58757;BME280;44527;47.460;19.016;2024-02-16T14:14:04;100962.28;;;12.48;58.39
58757;BME280;44527;47.460;19.016;2024-02-16T14:17:07;100965.47;;;12.53;57.14
58757;BME280;44527;47.460;19.016;2024-02-16T14:20:10;100967.47;;;12.50;57.07
58757;BME280;44527;47.460;19.016;2024-02-16T14:23:13;100964.72;;;12.51;57.54
58757;BME280;44527;47.460;19.016;2024-02-16T14:26:15;100960.97;;;12.55;57.55
58757;BME280;44527;47.460;19.016;2024-02-16T14:29:18;100965.69;;;12.50;57.55
58757;BME280;44527;47.460;19.016;2024-02-16T14:32:20;100964.38;;;12.43;57.76
58757;BME280;44527;47.460;19.016;2024-02-16T14:35:22;100966.25;;;12.41;58.32
58757;BME280;44527;47.460;19.016;2024-02-16T14:38:25;100959.41;;;12.38;58.36
58757;BME280;44527;47.460;19.016;2024-02-16T14:41:27;100962.16;;;12.37;58.36
58757;BME280;44527;47.460;19.016;2024-02-16T14:44:31;100960.38;;;12.23;58.41
58757;BME280;44527;47.460;19.016;2024-02-16T14:47:37;100956.41;;;12.30;58.82
58757;BME280;44527;47.460;19.016;2024-02-16T14:50:39;100963.38;;;12.31;58.70
58757;BME280;44527;47.460;19.016;2024-02-16T14:53:43;100960.19;;;12.26;60.59
58757;BME280;44527;47.460;19.016;2024-02-16T14:56:46;100955.50;;;12.17;59.62
58757;BME280;44527;47.460;19.016;2024-02-16T14:59:48;100963.78;;;12.11;59.68
58757;BME280;44527;47.460;19.016;2024-02-16T15:02:51;100958.13;;;12.03;59.18
58757;BME280;44527;47.460;19.016;2024-02-16T15:05:56;100960.50;;;11.93;61.21
58757;BME280;44527;47.460;19.016;2024-02-16T15:08:59;100963.31;;;11.90;59.70
58757;BME280;44527;47.460;19.016;2024-02-16T15:12:02;100961.00;;;11.85;60.24
58757;BME280;44527;47.460;19.016;2024-02-16T15:15:05;100959.63;;;11.78;60.08
58757;BME280;44527;47.460;19.016;2024-02-16T15:18:07;100954.66;;;11.73;61.30
58757;BME280;44527;47.460;19.016;2024-02-16T15:21:10;100957.38;;;11.72;62.46
58757;BME280;44527;47.460;19.016;2024-02-16T15:24:12;100955.28;;;11.63;61.66
58757;BME280;44527;47.460;19.016;2024-02-16T15:27:15;100943.09;;;11.62;61.11
58757;BME280;44527;47.460;19.016;2024-02-16T15:30:18;100954.81;;;11.56;62.37
58757;BME280;44527;47.460;19.016;2024-02-16T15:33:20;100949.75;;;11.53;62.09
58757;BME280;44527;47.460;19.016;2024-02-16T15:36:23;100955.97;;;11.52;62.00
58757;BME280;44527;47.460;19.016;2024-02-16T15:39:25;100955.69;;;11.42;63.48
58757;BME280;44527;47.460;19.016;2024-02-16T15:42:28;100968.34;;;11.36;64.01
58757;BME280;44527;47.460;19.016;2024-02-16T15:45:35;100966.50;;;11.22;64.04
58757;BME280;44527;47.460;19.016;2024-02-16T15:48:42;100968.06;;;11.10;64.32
58757;BME280;44527;47.460;19.016;2024-02-16T15:51:46;100962.25;;;11.05;64.41
58757;BME280;44527;47.460;19.016;2024-02-16T15:54:49;100963.19;;;11.04;64.39
58757;BME280;44527;47.460;19.016;2024-02-16T15:57:51;100957.72;;;10.93;65.74
58757;BME280;44527;47.460;19.016;2024-02-16T16:00:54;100965.53;;;10.78;65.87
58757;BME280;44527;47.460;19.016;2024-02-16T16:03:57;100973.09;;;10.69;66.06
58757;BME280;44527;47.460;19.016;2024-02-16T16:06:59;100970.62;;;10.66;66.03
58757;BME280;44527;47.460;19.016;2024-02-16T16:10:02;100980.09;;;10.52;66.80
58757;BME280;44527;47.460;19.016;2024-02-16T16:13:04;100980.78;;;10.40;68.27
58757;BME280;44527;47.460;19.016;2024-02-16T16:16:09;100976.72;;;10.34;67.10
58757;BME280;44527;47.460;19.016;2024-02-16T16:19:12;100975.50;;;10.24;67.78